createdAt,value
2017-10-20T00:00:13.445Z,29.70
2017-10-20T00:02:39.453Z,29.67
2017-10-20T00:05:05.435Z,29.97
2017-10-20T00:07:31.405Z,28.53
2017-10-20T00:09:57.374Z,30.40
2017-10-20T00:12:23.313Z,29.23
2017-10-20T00:14:49.297Z,28.33
2017-10-20T00:17:15.252Z,28.93
2017-10-20T00:19:41.965Z,27.93
2017-10-20T00:22:07.933Z,27.63
2017-10-20T00:24:33.925Z,28.53
2017-10-20T00:26:59.866Z,27.63
2017-10-20T00:29:25.842Z,29.30
2017-10-20T00:31:51.825Z,30.47
2017-10-20T00:34:18.514Z,30.13
2017-10-20T00:36:44.565Z,29.60
2017-10-20T00:39:10.513Z,27.57
2017-10-20T00:41:36.481Z,26.23
2017-10-20T00:44:02.421Z,28.27
2017-10-20T00:46:28.391Z,29.30
2017-10-20T00:48:54.369Z,29.50
2017-10-20T00:51:20.329Z,28.50
2017-10-20T00:53:46.285Z,29.80
2017-10-20T00:56:12.283Z,27.97
2017-10-20T00:58:38.230Z,29.37
2017-10-20T01:01:04.909Z,28.97
2017-10-20T01:03:30.884Z,30.40
2017-10-20T01:05:56.845Z,26.83
2017-10-20T01:08:22.844Z,31.73
2017-10-20T01:10:48.797Z,30.13
2017-10-20T01:13:14.761Z,30.20
2017-10-20T01:15:40.744Z,29.57
2017-10-20T01:18:06.708Z,30.20
2017-10-20T01:20:33.401Z,30.70
2017-10-20T01:22:59.366Z,28.07
2017-10-20T01:25:25.329Z,29.83
2017-10-20T01:27:51.257Z,32.10
2017-10-20T01:30:17.992Z,30.40
2017-10-20T01:32:43.944Z,30.80
2017-10-20T01:35:09.881Z,29.20
2017-10-20T01:37:35.852Z,30.10
2017-10-20T01:40:01.785Z,32.07
2017-10-20T01:42:27.717Z,29.77
2017-10-20T01:44:54.436Z,29.27
2017-10-20T01:47:21.125Z,33.80
2017-10-20T01:49:47.073Z,29.97
2017-10-20T01:52:13.800Z,30.37
2017-10-20T01:54:39.749Z,31.40
2017-10-20T01:57:05.673Z,29.17
2017-10-20T01:59:31.633Z,30.33
2017-10-20T02:01:57.557Z,31.67
2017-10-20T02:04:23.529Z,30.17
2017-10-20T02:06:50.201Z,29.43
2017-10-20T02:09:16.141Z,28.73
2017-10-20T02:11:42.849Z,28.93
2017-10-20T02:14:08.797Z,27.97
2017-10-20T02:16:34.761Z,29.20
2017-10-20T02:19:00.745Z,29.80
2017-10-20T02:21:26.709Z,29.53
2017-10-20T02:23:53.397Z,29.10
2017-10-20T02:26:19.368Z,28.03
2017-10-20T02:28:45.324Z,27.57
2017-10-20T02:31:11.309Z,31.20
2017-10-20T02:33:37.274Z,29.40
2017-10-20T02:36:03.945Z,27.63
2017-10-20T02:38:29.872Z,29.93
2017-10-20T02:40:55.833Z,26.63
2017-10-20T02:43:21.796Z,29.17
2017-10-20T02:45:47.781Z,27.60
2017-10-20T02:48:13.714Z,28.40
2017-10-20T02:50:39.696Z,28.87
2017-10-20T02:53:05.625Z,28.13
2017-10-20T02:55:31.597Z,30.67
2017-10-20T02:57:57.529Z,28.90
2017-10-20T03:00:23.464Z,27.93
2017-10-20T03:02:50.184Z,27.97
2017-10-20T03:05:16.861Z,26.23
2017-10-20T03:07:42.833Z,26.93
2017-10-20T03:10:09.561Z,28.17
2017-10-20T03:12:36.245Z,28.20
2017-10-20T03:15:02.191Z,27.70
2017-10-20T03:17:28.908Z,30.33
2017-10-20T03:19:55.576Z,29.83
2017-10-20T03:22:21.545Z,30.00
2017-10-20T03:24:48.313Z,27.40
2017-10-20T03:27:14.273Z,27.50
2017-10-20T03:29:40.987Z,26.57
2017-10-20T03:32:06.956Z,26.40
2017-10-20T03:34:32.905Z,29.37
2017-10-20T03:36:58.876Z,29.53
2017-10-20T03:39:24.804Z,26.60
2017-10-20T03:41:50.737Z,28.77
2017-10-20T03:44:17.456Z,28.43
2017-10-20T03:46:43.398Z,26.93
2017-10-20T03:49:09.345Z,29.27
2017-10-20T03:51:35.360Z,29.77
2017-10-20T03:54:01.302Z,25.77
2017-10-20T03:56:28.031Z,29.10
2017-10-20T03:58:54.752Z,27.33
2017-10-20T04:01:21.525Z,26.00
2017-10-20T04:03:47.514Z,28.87
2017-10-20T04:06:13.522Z,28.90
2017-10-20T04:08:39.477Z,26.53
2017-10-20T04:11:06.906Z,27.60
2017-10-20T04:13:32.885Z,27.60
2017-10-20T04:15:58.833Z,31.00
2017-10-20T04:18:24.806Z,27.87
2017-10-20T04:20:50.745Z,28.77
2017-10-20T04:23:16.718Z,27.87
2017-10-20T04:25:42.703Z,28.67
2017-10-20T04:28:08.657Z,31.53
2017-10-20T04:30:34.605Z,28.83
2017-10-20T04:33:01.317Z,28.10
2017-10-20T04:35:27.261Z,29.80
2017-10-20T04:37:53.193Z,30.13
2017-10-20T04:40:19.161Z,28.97
2017-10-20T04:42:45.869Z,28.73
2017-10-20T04:45:11.828Z,28.93
2017-10-20T04:47:37.808Z,29.90
2017-10-20T04:50:03.785Z,31.77
2017-10-20T04:52:29.717Z,33.13
2017-10-20T04:54:56.397Z,33.23
2017-10-20T04:57:22.389Z,33.10
2017-10-20T04:59:48.320Z,32.60
2017-10-20T05:02:14.258Z,29.70
2017-10-20T05:04:40.976Z,31.17
2017-10-20T05:07:06.930Z,28.60
2017-10-20T05:09:32.929Z,30.80
2017-10-20T05:11:58.909Z,28.93
2017-10-20T05:14:25.593Z,29.37
2017-10-20T05:16:51.536Z,28.77
2017-10-20T05:19:18.265Z,27.70
2017-10-20T05:21:44.959Z,27.37
2017-10-20T05:24:11.650Z,27.90
2017-10-20T05:26:37.633Z,30.90
2017-10-20T05:29:04.309Z,28.57
2017-10-20T05:31:30.297Z,26.23
2017-10-20T05:33:56.271Z,28.23
2017-10-20T05:36:23.053Z,28.73
2017-10-20T05:38:49.025Z,29.50
2017-10-20T05:41:14.988Z,29.63
2017-10-20T05:43:40.985Z,29.53
2017-10-20T05:46:07.701Z,29.23
2017-10-20T05:48:33.685Z,30.77
2017-10-20T05:50:59.628Z,29.60
2017-10-20T05:53:25.585Z,30.33
2017-10-20T05:55:51.540Z,30.17
2017-10-20T05:58:17.477Z,30.77
2017-10-20T06:00:44.207Z,28.80
2017-10-20T06:03:10.897Z,32.60
2017-10-20T06:05:36.837Z,29.37
2017-10-20T06:08:03.552Z,28.77
2017-10-20T06:10:30.229Z,30.37
2017-10-20T06:12:56.205Z,30.67
2017-10-20T06:15:22.154Z,29.97
2017-10-20T06:17:48.128Z,30.37
2017-10-20T06:20:14.123Z,32.87
2017-10-20T06:22:40.424Z,32.03
2017-10-20T06:25:07.101Z,31.20
2017-10-20T06:27:33.054Z,30.57
2017-10-20T06:29:59.792Z,33.63
2017-10-20T06:32:25.740Z,33.83
2017-10-20T06:34:51.694Z,34.03
2017-10-20T06:37:18.452Z,32.90
2017-10-20T06:39:44.490Z,31.40
2017-10-20T06:42:10.429Z,34.03
2017-10-20T06:44:36.400Z,33.47
2017-10-20T06:47:02.329Z,31.70
2017-10-20T06:49:28.269Z,33.20
2017-10-20T06:51:54.971Z,31.67
2017-10-20T06:54:20.937Z,32.23
2017-10-20T06:56:46.874Z,33.83
2017-10-20T06:59:12.837Z,31.90
2017-10-20T07:01:38.782Z,34.80
2017-10-20T07:04:04.773Z,33.93
2017-10-20T07:06:30.717Z,33.70
2017-10-20T07:08:57.436Z,35.80
2017-10-20T07:11:24.160Z,36.90
2017-10-20T07:13:50.865Z,33.37
2017-10-20T07:16:16.912Z,32.83
2017-10-20T07:18:43.729Z,35.00
2017-10-20T07:21:10.405Z,32.70
2017-10-20T07:23:36.361Z,34.13
2017-10-20T07:26:03.073Z,33.20
2017-10-20T07:28:29.029Z,33.47
2017-10-20T07:30:55.013Z,32.87
2017-10-20T07:33:21.689Z,34.07
2017-10-20T07:35:47.617Z,31.00
2017-10-20T07:38:13.578Z,33.33
2017-10-20T07:40:39.513Z,33.50
2017-10-20T07:43:05.519Z,31.57
2017-10-20T07:45:31.488Z,31.03
2017-10-20T07:47:57.465Z,30.00
2017-10-20T07:50:24.155Z,30.67
2017-10-20T07:52:50.116Z,29.10
2017-10-20T07:55:16.064Z,30.20
2017-10-20T07:57:42.054Z,30.53
2017-10-20T08:00:08.005Z,29.43
2017-10-20T08:02:33.937Z,28.37
2017-10-20T08:04:59.973Z,28.50
2017-10-20T08:07:25.940Z,26.90
2017-10-20T08:09:52.622Z,26.87
2017-10-20T08:12:18.669Z,26.30
2017-10-20T08:14:44.669Z,25.27
2017-10-20T08:17:10.605Z,25.30
2017-10-20T08:19:36.544Z,26.07
2017-10-20T08:22:02.512Z,24.10
2017-10-20T08:24:29.184Z,26.50
2017-10-20T08:26:55.157Z,24.00
2017-10-20T08:29:21.092Z,22.50
2017-10-20T08:31:47.071Z,24.20
2017-10-20T08:34:13.749Z,22.90
2017-10-20T08:36:39.753Z,22.23
2017-10-20T08:39:05.685Z,23.33
2017-10-20T08:41:31.621Z,22.60
2017-10-20T08:43:57.627Z,21.97
2017-10-20T08:46:24.293Z,20.50
2017-10-20T08:48:50.221Z,20.70
2017-10-20T08:51:16.181Z,20.53
2017-10-20T08:53:42.125Z,18.07
2017-10-20T08:56:08.104Z,17.60
2017-10-20T08:58:34.052Z,18.07
2017-10-20T09:00:59.989Z,19.40
2017-10-20T09:03:26.688Z,18.60
2017-10-20T09:05:52.668Z,17.27
2017-10-20T09:08:18.603Z,18.80
2017-10-20T09:10:44.592Z,18.27
2017-10-20T09:13:10.557Z,17.13
2017-10-20T09:15:36.537Z,17.60
2017-10-20T09:18:02.473Z,17.43
2017-10-20T09:20:29.163Z,17.97
2017-10-20T09:22:55.852Z,18.00
2017-10-20T09:25:22.521Z,17.03
2017-10-20T09:27:48.505Z,17.70
2017-10-20T09:30:14.481Z,17.33
2017-10-20T09:32:40.429Z,17.73
2017-10-20T09:35:06.382Z,17.13
2017-10-20T09:37:32.357Z,17.23
2017-10-20T09:39:58.288Z,16.53
2017-10-20T09:42:24.230Z,18.57
2017-10-20T09:44:50.966Z,16.70
2017-10-20T09:47:17.637Z,16.50
2017-10-20T09:49:43.641Z,16.27
2017-10-20T09:52:09.600Z,16.53
2017-10-20T09:54:36.277Z,17.20
2017-10-20T09:57:02.256Z,15.70
2017-10-20T09:59:28.203Z,17.03
2017-10-20T10:01:54.181Z,17.83
2017-10-20T10:04:20.116Z,18.53
2017-10-20T10:06:46.073Z,15.73
2017-10-20T10:09:12.025Z,17.63
2017-10-20T10:11:38.009Z,17.27
2017-10-20T10:14:03.941Z,18.37
2017-10-20T10:16:29.901Z,19.70
2017-10-20T10:18:56.620Z,19.37
2017-10-20T10:21:23.314Z,19.00
2017-10-20T10:23:49.256Z,19.40
2017-10-20T10:26:15.237Z,18.93
2017-10-20T10:28:41.180Z,18.23
2017-10-20T10:31:07.173Z,21.27
2017-10-20T10:33:33.117Z,19.80
2017-10-20T10:35:59.837Z,19.60
2017-10-20T10:38:25.812Z,19.23
2017-10-20T10:40:51.761Z,19.90
2017-10-20T10:43:17.728Z,20.50
2017-10-20T10:45:43.672Z,20.60
2017-10-20T10:48:09.658Z,20.17
2017-10-20T10:50:35.608Z,17.97
2017-10-20T10:53:02.287Z,20.40
2017-10-20T10:55:28.261Z,18.97
2017-10-20T10:57:54.205Z,19.57
2017-10-20T11:00:20.173Z,19.63
2017-10-20T11:02:46.118Z,21.07
2017-10-20T11:05:12.075Z,19.40
2017-10-20T11:07:51.113Z,18.73
2017-10-20T11:10:29.593Z,20.80
2017-10-20T11:12:59.505Z,21.03
2017-10-20T11:15:25.458Z,20.17
2017-10-20T11:17:51.397Z,20.43
2017-10-20T11:20:18.109Z,20.97
2017-10-20T11:22:44.061Z,21.60
2017-10-20T11:25:10.020Z,20.37
2017-10-20T11:27:36.697Z,22.67
2017-10-20T11:30:02.639Z,22.70
2017-10-20T11:32:29.353Z,21.20
2017-10-20T11:34:56.069Z,21.67
2017-10-20T11:37:22.012Z,21.50
2017-10-20T11:39:48.733Z,24.60
2017-10-20T11:42:15.401Z,21.57
2017-10-20T11:44:41.341Z,21.63
2017-10-20T11:47:07.313Z,22.90
2017-10-20T11:49:33.276Z,23.07
2017-10-20T11:51:59.965Z,21.93
2017-10-20T11:54:25.965Z,24.67
2017-10-20T11:56:51.930Z,23.00
2017-10-20T11:59:17.867Z,23.10
2017-10-20T12:01:43.849Z,24.77
2017-10-20T12:04:09.788Z,24.10
2017-10-20T12:06:35.729Z,23.40
2017-10-20T12:09:01.778Z,24.47
2017-10-20T12:11:27.757Z,25.20
2017-10-20T12:13:53.692Z,24.30
2017-10-20T12:16:20.409Z,23.50
2017-10-20T12:18:47.854Z,25.37
2017-10-20T12:21:14.529Z,24.97
2017-10-20T12:23:40.504Z,24.47
2017-10-20T12:26:07.172Z,24.20
2017-10-20T12:28:33.157Z,23.73
2017-10-20T12:30:59.105Z,25.37
2017-10-20T12:33:25.045Z,24.07
2017-10-20T12:35:51.010Z,24.47
2017-10-20T12:38:16.953Z,25.47
2017-10-20T12:40:42.932Z,23.33
2017-10-20T12:43:08.884Z,26.53
2017-10-20T12:45:35.607Z,25.90
2017-10-20T12:48:02.304Z,25.60
2017-10-20T12:50:28.299Z,25.50
2017-10-20T12:52:54.273Z,24.47
2017-10-20T12:55:20.257Z,24.80
2017-10-20T12:57:46.984Z,25.97
2017-10-20T13:00:13.709Z,24.50
2017-10-20T13:02:40.401Z,25.37
2017-10-20T13:05:07.081Z,23.90
2017-10-20T13:07:33.044Z,25.67
2017-10-20T13:09:59.004Z,24.30
2017-10-20T13:12:25.002Z,24.60
2017-10-20T13:14:51.056Z,26.70
2017-10-20T13:17:16.992Z,26.30
2017-10-20T13:19:43.709Z,25.37
2017-10-20T13:22:09.677Z,26.30
2017-10-20T13:24:35.613Z,25.23
2017-10-20T13:27:02.350Z,25.40
2017-10-20T13:29:28.289Z,26.60
2017-10-20T13:31:54.232Z,25.20
2017-10-20T13:34:20.202Z,27.47
2017-10-20T13:36:46.197Z,25.20
2017-10-20T13:39:12.876Z,30.33
2017-10-20T13:41:38.870Z,26.53
2017-10-20T13:44:04.820Z,28.13
2017-10-20T13:46:30.810Z,27.50
2017-10-20T13:48:56.857Z,24.70
2017-10-20T13:51:23.543Z,28.87
2017-10-20T13:53:49.479Z,28.07
2017-10-20T13:56:16.200Z,27.33
2017-10-20T13:58:42.889Z,27.43
2017-10-20T14:01:08.837Z,25.70
2017-10-20T14:03:35.565Z,27.00
2017-10-20T14:06:02.259Z,28.30
2017-10-20T14:08:28.229Z,27.87
2017-10-20T14:10:54.221Z,28.53
2017-10-20T14:13:20.172Z,30.13
2017-10-20T14:15:46.144Z,26.03
2017-10-20T14:18:12.174Z,28.10
2017-10-20T14:20:38.149Z,28.77
2017-10-20T14:23:04.881Z,28.57
2017-10-20T14:25:31.600Z,27.10
2017-10-20T14:27:58.344Z,28.77
2017-10-20T14:30:24.285Z,27.00
2017-10-20T14:32:50.267Z,28.90
2017-10-20T14:35:16.263Z,27.23
2017-10-20T14:37:42.221Z,27.70
2017-10-20T14:40:08.204Z,26.83
2017-10-20T14:42:34.177Z,28.20
2017-10-20T14:45:00.918Z,27.53
2017-10-20T14:47:26.929Z,25.03
2017-10-20T14:49:52.897Z,28.30
2017-10-20T14:52:18.873Z,27.63
2017-10-20T14:54:44.810Z,27.20
2017-10-20T14:57:10.750Z,30.40
2017-10-20T14:59:37.460Z,26.63
2017-10-20T15:02:04.154Z,28.80
2017-10-20T15:04:30.153Z,28.97
2017-10-20T15:06:56.100Z,27.27
2017-10-20T15:09:22.797Z,28.50
2017-10-20T15:11:48.781Z,27.50
2017-10-20T15:14:14.722Z,28.40
2017-10-20T15:16:40.669Z,27.27
2017-10-20T15:19:06.685Z,29.37
2017-10-20T15:21:32.635Z,28.07
2017-10-20T15:23:58.593Z,28.63
2017-10-20T15:26:25.340Z,28.97
2017-10-20T15:28:51.317Z,28.40
2017-10-20T15:31:18.041Z,26.93
2017-10-20T15:33:43.992Z,29.23
2017-10-20T15:36:10.035Z,28.07
2017-10-20T15:38:36.029Z,28.73
2017-10-20T15:41:02.021Z,30.83
2017-10-20T15:43:27.969Z,29.00
2017-10-20T15:45:53.996Z,28.03
2017-10-20T15:48:19.949Z,28.40
2017-10-20T15:50:46.172Z,28.67
2017-10-20T15:53:12.166Z,30.13
2017-10-20T15:55:38.210Z,26.90
2017-10-20T15:58:04.172Z,30.53
2017-10-20T16:00:31.021Z,32.30
2017-10-20T16:02:57.201Z,30.37
2017-10-20T16:05:24.033Z,29.87
2017-10-20T16:07:50.709Z,30.80
2017-10-20T16:10:16.675Z,36.30
2017-10-20T16:12:43.410Z,47.60
2017-10-20T16:15:09.384Z,34.73
2017-10-20T16:17:35.345Z,32.90
2017-10-20T16:20:01.325Z,31.23
2017-10-20T16:22:28.017Z,36.60
2017-10-20T16:24:53.965Z,33.50
2017-10-20T16:27:19.939Z,34.60
2017-10-20T16:29:45.888Z,32.17
2017-10-20T16:32:11.861Z,33.67
2017-10-20T16:34:38.900Z,33.97
2017-10-20T16:37:04.902Z,33.70
2017-10-20T16:39:30.850Z,35.33
2017-10-20T16:41:57.063Z,34.77
2017-10-20T16:44:23.764Z,33.43
2017-10-20T16:46:49.748Z,31.53
2017-10-20T16:49:15.729Z,31.60
2017-10-20T16:51:42.416Z,31.23
2017-10-20T16:54:08.433Z,33.03
2017-10-20T16:56:34.374Z,33.37
2017-10-20T16:59:01.072Z,32.57
2017-10-20T17:01:27.040Z,32.33
2017-10-20T17:03:53.013Z,36.30
2017-10-20T17:06:19.689Z,33.17
2017-10-20T17:08:45.673Z,33.03
2017-10-20T17:11:11.669Z,33.47
2017-10-20T17:13:37.689Z,34.03
2017-10-20T17:16:03.629Z,34.67
2017-10-20T17:18:29.597Z,35.50
2017-10-20T17:20:55.541Z,38.10
2017-10-20T17:23:21.504Z,32.63
2017-10-20T17:25:47.440Z,35.90
2017-10-20T17:28:13.413Z,35.60
2017-10-20T17:30:40.105Z,35.30
2017-10-20T17:33:06.074Z,35.10
2017-10-20T17:35:33.093Z,35.77
2017-10-20T17:37:59.061Z,35.50
2017-10-20T17:40:25.001Z,36.13
2017-10-20T17:42:50.984Z,36.40
2017-10-20T17:45:16.917Z,38.27
2017-10-20T17:47:42.857Z,35.87
2017-10-20T17:50:08.846Z,36.80
2017-10-20T17:52:34.801Z,34.40
2017-10-20T17:55:00.776Z,38.00
2017-10-20T17:57:26.710Z,40.57
2017-10-20T17:59:52.652Z,40.07
2017-10-20T18:02:19.361Z,37.17
2017-10-20T18:04:46.049Z,39.17
2017-10-20T18:07:12.033Z,39.30
2017-10-20T18:09:37.969Z,37.90
2017-10-20T18:12:03.924Z,39.30
2017-10-20T18:14:30.649Z,40.07
2017-10-20T18:16:57.329Z,38.63
2017-10-20T18:19:23.357Z,37.40
2017-10-20T18:21:49.289Z,36.23
2017-10-20T18:24:15.289Z,35.90
2017-10-20T18:26:41.248Z,37.00
2017-10-20T18:29:07.945Z,36.70
2017-10-20T18:31:33.922Z,36.70
2017-10-20T18:33:59.860Z,35.13
2017-10-20T18:36:25.850Z,35.33
2017-10-20T18:38:51.816Z,36.20
2017-10-20T18:41:18.502Z,36.37
2017-10-20T18:43:44.491Z,35.83
2017-10-20T18:46:10.504Z,35.23
2017-10-20T18:48:36.483Z,36.20
2017-10-20T18:51:02.488Z,35.80
2017-10-20T18:53:28.428Z,38.30
2017-10-20T18:55:54.400Z,38.00
2017-10-20T18:58:20.437Z,43.17
2017-10-20T19:00:46.418Z,42.40
2017-10-20T19:03:12.384Z,42.90
2017-10-20T19:05:38.382Z,38.50
2017-10-20T19:08:04.325Z,39.70
2017-10-20T19:10:31.040Z,42.47
2017-10-20T19:12:56.972Z,37.33
2017-10-20T19:15:23.717Z,37.17
2017-10-20T19:17:49.706Z,38.23
2017-10-20T19:20:16.393Z,37.07
2017-10-20T19:22:42.340Z,35.67
2017-10-20T19:25:09.060Z,37.60
2017-10-20T19:27:42.944Z,39.47
2017-10-20T19:30:09.677Z,36.97
2017-10-20T19:32:35.624Z,39.63
2017-10-20T19:35:01.588Z,37.30
2017-10-20T19:37:28.264Z,38.97
2017-10-20T19:39:54.228Z,35.57
2017-10-20T19:42:20.901Z,39.83
2017-10-20T19:44:46.876Z,36.40
2017-10-20T19:47:12.826Z,36.53
2017-10-20T19:49:38.769Z,35.50
2017-10-20T19:52:05.497Z,37.27
2017-10-20T19:54:32.185Z,38.63
2017-10-20T19:56:58.175Z,41.77
2017-10-20T19:59:24.137Z,38.97
2017-10-20T20:01:50.811Z,40.47
2017-10-20T20:04:16.781Z,35.47
2017-10-20T20:06:43.480Z,35.87
2017-10-20T20:09:09.497Z,37.90
2017-10-20T20:11:36.184Z,37.47
2017-10-20T20:14:02.160Z,37.30
2017-10-20T20:16:28.096Z,37.03
2017-10-20T20:18:54.037Z,36.40
2017-10-20T20:21:20.010Z,38.90
2017-10-20T20:23:45.970Z,41.00
2017-10-20T20:26:12.696Z,41.07
2017-10-20T20:28:39.402Z,42.73
2017-10-20T20:31:08.980Z,41.13
2017-10-20T20:33:35.733Z,41.60
2017-10-20T20:36:02.453Z,40.90
2017-10-20T20:38:28.420Z,41.53
2017-10-20T20:40:54.393Z,41.40
2017-10-20T20:43:20.369Z,40.50
2017-10-20T20:45:46.340Z,40.40
2017-10-20T20:48:12.318Z,40.53
2017-10-20T20:50:38.765Z,41.70
2017-10-20T20:53:06.251Z,38.80
2017-10-20T20:55:33.194Z,39.90
2017-10-20T20:58:00.143Z,38.13
2017-10-20T21:00:26.371Z,40.67
2017-10-20T21:02:52.368Z,39.87
2017-10-20T21:05:18.377Z,46.63
2017-10-20T21:07:44.340Z,43.70
2017-10-20T21:10:10.279Z,42.40
2017-10-20T21:12:36.997Z,42.97
2017-10-20T21:15:02.965Z,42.40
2017-10-20T21:17:28.967Z,41.90
2017-10-20T21:19:54.900Z,41.70
2017-10-20T21:22:21.643Z,43.10
2017-10-20T21:24:47.612Z,40.73
2017-10-20T21:27:14.294Z,40.70
2017-10-20T21:29:40.268Z,42.47
2017-10-20T21:32:06.212Z,44.30
2017-10-20T21:34:32.190Z,46.63
2017-10-20T21:36:58.184Z,42.47
2017-10-20T21:39:24.125Z,40.90
2017-10-20T21:41:50.801Z,42.00
2017-10-20T21:44:16.801Z,40.40
2017-10-20T21:46:42.757Z,43.40
2017-10-20T21:49:08.839Z,41.50
2017-10-20T21:51:34.829Z,43.10
2017-10-20T21:54:00.810Z,42.27
2017-10-20T21:56:26.749Z,39.73
2017-10-20T21:58:52.726Z,39.83
2017-10-20T22:01:18.676Z,41.83
2017-10-20T22:03:44.682Z,41.80
2017-10-20T22:06:17.662Z,42.20
2017-10-20T22:08:43.646Z,41.37
2017-10-20T22:11:09.584Z,38.10
2017-10-20T22:13:35.543Z,42.20
2017-10-20T22:16:01.526Z,38.87
2017-10-20T22:18:27.477Z,39.93
2017-10-20T22:20:53.432Z,36.93
2017-10-20T22:23:19.405Z,39.93
2017-10-20T22:25:45.356Z,38.13
2017-10-20T22:28:12.454Z,38.30
2017-10-20T22:30:38.429Z,36.93
2017-10-20T22:33:04.375Z,38.63
2017-10-20T22:35:30.308Z,37.50
2017-10-20T22:37:56.281Z,36.63
2017-10-20T22:40:22.212Z,35.47
2017-10-20T22:42:48.944Z,38.33
2017-10-20T22:45:15.629Z,40.20
2017-10-20T22:47:41.570Z,38.13
2017-10-20T22:50:08.288Z,35.67
2017-10-20T22:52:34.986Z,34.67
2017-10-20T22:55:00.952Z,36.10
2017-10-20T22:57:26.920Z,34.20
2017-10-20T22:59:52.905Z,36.03
2017-10-20T23:02:18.921Z,31.80
2017-10-20T23:04:44.891Z,30.57
2017-10-20T23:07:10.836Z,29.50
2017-10-20T23:09:36.813Z,26.67
2017-10-20T23:12:02.756Z,25.80
2017-10-20T23:14:28.727Z,26.00
2017-10-20T23:16:54.713Z,22.60
2017-10-20T23:19:20.685Z,21.13
2017-10-20T23:21:47.417Z,19.20
2017-10-20T23:24:13.366Z,20.37
2017-10-20T23:26:39.335Z,18.00
2017-10-20T23:29:06.808Z,17.50
2017-10-20T23:31:32.804Z,15.57
2017-10-20T23:33:58.760Z,13.20
2017-10-20T23:36:24.738Z,13.77
2017-10-20T23:38:50.672Z,13.37
2017-10-20T23:41:16.709Z,13.83
2017-10-20T23:43:43.421Z,13.23
2017-10-20T23:46:09.352Z,12.77
2017-10-20T23:48:35.339Z,11.97
2017-10-20T23:51:02.066Z,11.97
2017-10-20T23:53:28.004Z,13.27
2017-10-20T23:55:53.969Z,13.60
2017-10-20T23:58:19.914Z,16.80
